Terminal Aerodrome Forecast
Issued by NWS

Home | Current Version | Previous Version | Text Only | Print | Product List | Glossary On
Versions: 1 2 3 4 5 6 7 8 9 10 11 12 13 14 15 16 17
000
FTUS41 KPHI 311700
TAFPNE
TAF
KPNE 311737Z 3118/0118 01009KT P6SM OVC040
     FM010400 03011KT P6SM -RA OVC025
     FM011000 02010G20KT 5SM -RA OVC015=

USA.gov is the U.S. government's official web portal to all federal, state and local government web resources and services.